createdAt,value
2018-12-26T00:02:01.308Z,65.53
2018-12-26T00:04:31.186Z,65.10
2018-12-26T00:07:01.077Z,65.03
2018-12-26T00:09:32.077Z,64.69
2018-12-26T00:12:42.190Z,64.80
2018-12-26T00:15:12.286Z,64.73
2018-12-26T00:17:44.698Z,64.67
2018-12-26T00:20:14.579Z,64.60
2018-12-26T00:22:44.428Z,64.64
2018-12-26T00:25:14.351Z,65.26
2018-12-26T00:27:44.813Z,65.26
2018-12-26T00:30:14.775Z,65.42
2018-12-26T00:32:45.008Z,65.75
2018-12-26T00:35:15.257Z,65.49
2018-12-26T00:37:45.031Z,65.70
2018-12-26T00:40:15.330Z,66.15
2018-12-26T00:42:45.662Z,66.12
2018-12-26T00:45:16.363Z,66.67
2018-12-26T00:48:26.620Z,66.56
2018-12-26T00:50:56.881Z,66.44
2018-12-26T00:53:26.715Z,66.73
2018-12-26T00:55:56.546Z,66.91
2018-12-26T00:58:26.343Z,66.93
2018-12-26T01:00:56.101Z,67.41
2018-12-26T01:03:25.913Z,67.73
2018-12-26T01:05:55.691Z,67.94
2018-12-26T01:08:25.461Z,67.84
2018-12-26T01:10:55.395Z,67.74
2018-12-26T01:13:25.158Z,67.46
2018-12-26T01:15:54.918Z,67.12
2018-12-26T01:18:24.738Z,66.86
2018-12-26T01:20:54.620Z,66.40
2018-12-26T01:23:24.779Z,66.13
2018-12-26T01:25:54.628Z,65.69
2018-12-26T01:28:24.411Z,65.67
2018-12-26T01:30:54.290Z,65.82
2018-12-26T01:33:24.085Z,65.55
2018-12-26T01:35:56.099Z,65.25
2018-12-26T01:38:25.795Z,65.46
2018-12-26T01:40:57.326Z,65.41
2018-12-26T01:43:27.129Z,65.53
2018-12-26T01:45:56.903Z,65.74
2018-12-26T01:48:26.669Z,65.58
2018-12-26T01:50:56.415Z,65.72
2018-12-26T01:53:26.145Z,65.55
2018-12-26T01:55:56.409Z,65.22
2018-12-26T01:58:26.199Z,64.82
2018-12-26T02:00:56.341Z,65.12
2018-12-26T02:03:26.163Z,65.37
2018-12-26T02:05:56.336Z,65.50
2018-12-26T02:08:26.140Z,65.84
2018-12-26T02:10:57.712Z,66.03
2018-12-26T02:13:27.834Z,66.03
2018-12-26T02:15:59.880Z,66.01
2018-12-26T02:18:29.675Z,65.62
2018-12-26T02:21:00.132Z,65.58
2018-12-26T02:23:29.929Z,65.87
2018-12-26T02:26:00.206Z,66.22
2018-12-26T02:28:30.667Z,66.20
2018-12-26T02:31:00.461Z,65.85
2018-12-26T02:33:30.241Z,65.41
2018-12-26T02:36:00.470Z,65.09
2018-12-26T02:38:30.245Z,64.83
2018-12-26T02:41:00.371Z,64.84
2018-12-26T02:44:10.251Z,64.93
2018-12-26T02:46:40.453Z,64.83
2018-12-26T02:49:11.280Z,64.68
2018-12-26T02:51:42.015Z,64.49
2018-12-26T02:54:12.064Z,64.76
2018-12-26T02:56:47.744Z,64.98
2018-12-26T02:59:13.550Z,64.44
2018-12-26T03:01:43.950Z,64.30
2018-12-26T03:04:13.751Z,64.59
2018-12-26T03:06:43.592Z,64.85
2018-12-26T03:09:13.815Z,64.52
2018-12-26T03:11:43.727Z,64.37
2018-12-26T03:14:13.940Z,64.18
2018-12-26T03:16:43.779Z,64.24
2018-12-26T03:19:13.647Z,64.41
2018-12-26T03:21:43.801Z,64.61
2018-12-26T03:24:13.569Z,64.92
2018-12-26T03:29:50.113Z,66.47
2018-12-26T03:32:19.495Z,67.02
2018-12-26T03:34:48.878Z,67.45
2018-12-26T03:37:18.333Z,67.17
2018-12-26T03:39:47.710Z,66.62
2018-12-26T03:42:17.141Z,66.57
2018-12-26T03:44:46.801Z,66.45
2018-12-26T03:47:55.475Z,66.40
2018-12-26T03:50:24.963Z,66.74
2018-12-26T03:53:33.677Z,66.96
2018-12-26T03:56:03.065Z,66.78
2018-12-26T03:58:32.464Z,66.27
2018-12-26T04:01:20.885Z,66.51
2018-12-26T04:03:50.389Z,66.47
2018-12-26T04:06:59.109Z,66.65
2018-12-26T04:09:28.619Z,66.46
2018-12-26T04:11:58.064Z,66.32
2018-12-26T04:14:27.520Z,66.09
2018-12-26T04:16:56.916Z,65.99
2018-12-26T04:19:26.639Z,66.00
2018-12-26T04:21:56.125Z,65.97
2018-12-26T04:24:25.576Z,66.08
2018-12-26T04:26:55.021Z,66.32
2018-12-26T04:29:28.390Z,66.63
2018-12-26T04:31:57.826Z,66.71
2018-12-26T04:34:27.511Z,67.06
2018-12-26T04:37:36.242Z,66.52
2018-12-26T04:40:06.524Z,66.04
2018-12-26T04:42:36.212Z,65.70
2018-12-26T04:45:06.053Z,65.60
2018-12-26T04:47:35.451Z,65.12
2018-12-26T04:50:06.794Z,65.25
2018-12-26T04:52:36.535Z,65.37
2018-12-26T04:55:06.092Z,65.20
2018-12-26T04:57:35.422Z,65.31
2018-12-26T05:00:05.760Z,65.33
2018-12-26T05:02:35.132Z,65.60
2018-12-26T05:05:04.963Z,65.97
2018-12-26T05:07:34.642Z,66.26
2018-12-26T05:10:43.322Z,65.78
2018-12-26T05:13:13.232Z,65.10
2018-12-26T05:15:44.417Z,65.14
2018-12-26T05:18:13.705Z,64.53
2018-12-26T05:20:43.448Z,64.42
2018-12-26T05:23:12.907Z,64.99
2018-12-26T05:25:42.231Z,64.88
2018-12-26T05:28:11.444Z,64.38
2018-12-26T05:30:40.591Z,63.95
2018-12-26T05:33:09.804Z,63.94
2018-12-26T05:35:38.969Z,63.85
2018-12-26T05:38:08.155Z,64.26
2018-12-26T05:40:37.324Z,63.79
2018-12-26T05:43:06.795Z,64.13
2018-12-26T05:45:35.965Z,64.50
2018-12-26T05:48:05.151Z,64.37
2018-12-26T05:50:34.316Z,64.60
2018-12-26T05:53:03.510Z,64.52
2018-12-26T05:55:32.993Z,64.22
2018-12-26T05:58:02.185Z,63.76
2018-12-26T06:00:31.349Z,63.70
2018-12-26T06:03:00.785Z,63.41
2018-12-26T06:05:29.981Z,63.29
2018-12-26T06:07:59.162Z,62.88
2018-12-26T06:10:28.353Z,62.56
2018-12-26T06:12:57.521Z,63.03
2018-12-26T06:15:26.742Z,62.66
2018-12-26T06:17:55.909Z,62.59
2018-12-26T06:20:25.100Z,62.39
2018-12-26T06:22:54.262Z,62.03
2018-12-26T06:25:23.453Z,61.78
2018-12-26T06:27:52.631Z,61.87
2018-12-26T06:30:22.168Z,61.74
2018-12-26T06:32:51.367Z,61.95
2018-12-26T06:35:20.555Z,62.80
2018-12-26T06:37:49.721Z,63.61
2018-12-26T06:40:18.919Z,64.33
2018-12-26T06:42:48.089Z,65.06
2018-12-26T06:45:17.292Z,64.77
2018-12-26T06:47:46.543Z,64.83
2018-12-26T06:50:15.733Z,64.64
2018-12-26T06:52:44.900Z,64.61
2018-12-26T06:55:14.449Z,64.77
2018-12-26T06:57:43.627Z,64.47
2018-12-26T07:00:12.815Z,64.49
2018-12-26T07:02:41.979Z,64.13
2018-12-26T07:05:11.547Z,63.88
2018-12-26T07:07:41.049Z,63.59
2018-12-26T07:10:10.242Z,63.50
2018-12-26T07:12:39.758Z,63.39
2018-12-26T07:15:09.259Z,62.99
2018-12-26T07:17:38.431Z,63.09
2018-12-26T07:20:07.622Z,63.03
2018-12-26T07:22:36.789Z,62.86
2018-12-26T07:25:06.064Z,63.02
2018-12-26T07:27:35.232Z,63.30
2018-12-26T07:30:04.769Z,63.17
2018-12-26T07:32:33.960Z,63.06
2018-12-26T07:35:03.159Z,62.86
2018-12-26T07:37:32.333Z,62.78
2018-12-26T07:40:01.526Z,62.97
2018-12-26T07:42:30.752Z,62.98
2018-12-26T07:44:59.961Z,63.39
2018-12-26T07:47:29.126Z,63.26
2018-12-26T07:49:58.313Z,63.07
2018-12-26T07:52:27.482Z,63.00
2018-12-26T07:54:56.671Z,63.07
2018-12-26T07:57:25.836Z,62.95
2018-12-26T07:59:55.027Z,63.47
2018-12-26T08:02:24.523Z,64.16
2018-12-26T08:04:53.713Z,65.08
2018-12-26T08:07:22.880Z,64.54
2018-12-26T08:09:52.075Z,64.10
2018-12-26T08:12:21.237Z,64.00
2018-12-26T08:14:50.433Z,64.35
2018-12-26T08:17:19.602Z,64.52
2018-12-26T08:19:48.770Z,64.44
2018-12-26T08:22:17.965Z,64.43
2018-12-26T08:24:47.218Z,64.97
2018-12-26T08:27:16.411Z,64.78
2018-12-26T08:29:45.583Z,64.70
2018-12-26T08:32:14.773Z,63.86
2018-12-26T08:34:43.962Z,64.05
2018-12-26T08:37:13.498Z,65.12
2018-12-26T08:39:42.662Z,64.39
2018-12-26T08:42:31.053Z,63.53
2018-12-26T08:45:00.282Z,62.90
2018-12-26T08:47:29.417Z,61.98
2018-12-26T08:49:58.584Z,61.26
2018-12-26T08:52:27.777Z,61.11
2018-12-26T08:54:56.940Z,60.49
2018-12-26T08:57:26.423Z,59.99
2018-12-26T08:59:55.593Z,59.59
2018-12-26T09:02:24.794Z,59.46
2018-12-26T09:04:53.963Z,60.17
2018-12-26T09:07:23.149Z,58.99
2018-12-26T09:09:52.317Z,59.67
2018-12-26T09:12:21.585Z,60.22
2018-12-26T09:14:50.752Z,60.52
2018-12-26T09:17:19.938Z,59.68
2018-12-26T09:19:49.100Z,58.89
2018-12-26T09:22:18.295Z,58.75
2018-12-26T09:24:47.588Z,58.31
2018-12-26T09:27:16.781Z,58.76
2018-12-26T09:29:45.960Z,58.76
2018-12-26T09:32:15.331Z,58.26
2018-12-26T09:34:44.522Z,57.41
2018-12-26T09:37:13.705Z,56.62
2018-12-26T09:39:42.881Z,56.87
2018-12-26T09:42:12.363Z,56.39
2018-12-26T09:44:41.526Z,56.27
2018-12-26T09:47:10.720Z,57.65
2018-12-26T09:49:39.885Z,57.96
2018-12-26T09:52:09.080Z,58.16
2018-12-26T09:54:38.256Z,58.22
2018-12-26T09:57:07.419Z,58.69
2018-12-26T09:59:36.614Z,58.56
2018-12-26T10:02:05.781Z,58.85
2018-12-26T10:04:34.967Z,59.26
2018-12-26T10:07:04.480Z,58.91
2018-12-26T10:09:33.663Z,58.28
2018-12-26T10:12:03.167Z,57.68
2018-12-26T10:14:32.361Z,57.87
2018-12-26T10:17:01.536Z,57.90
2018-12-26T10:19:30.741Z,58.14
2018-12-26T10:21:59.902Z,58.37
2018-12-26T10:24:29.089Z,58.67
2018-12-26T10:26:58.260Z,59.08
2018-12-26T10:29:27.457Z,59.60
2018-12-26T10:31:56.958Z,58.76
2018-12-26T10:34:26.191Z,58.40
2018-12-26T10:36:55.387Z,57.60
2018-12-26T10:39:24.729Z,56.86
2018-12-26T10:41:53.946Z,56.52
2018-12-26T10:44:23.147Z,56.56
2018-12-26T10:46:52.429Z,57.08
2018-12-26T10:49:21.954Z,56.61
2018-12-26T10:51:51.124Z,56.80
2018-12-26T10:54:20.326Z,56.18
2018-12-26T10:56:49.491Z,56.15
2018-12-26T10:59:18.698Z,56.75
2018-12-26T11:01:48.245Z,57.31
2018-12-26T11:04:17.432Z,57.75
2018-12-26T11:06:46.620Z,57.18
2018-12-26T11:09:16.145Z,57.10
2018-12-26T11:11:45.345Z,56.64
2018-12-26T11:14:14.544Z,56.46
2018-12-26T11:16:43.721Z,56.05
2018-12-26T11:19:12.917Z,55.34
2018-12-26T11:21:42.176Z,55.29
2018-12-26T11:24:11.379Z,55.65
2018-12-26T11:26:40.550Z,55.18
2018-12-26T11:29:18.347Z,54.58
2018-12-26T11:31:40.900Z,54.04
2018-12-26T11:34:10.518Z,53.60
2018-12-26T11:36:39.786Z,53.28
2018-12-26T11:39:08.966Z,53.74
2018-12-26T11:41:38.565Z,53.67
2018-12-26T11:44:07.724Z,53.67
2018-12-26T11:46:36.933Z,53.92
2018-12-26T11:49:06.167Z,54.08
2018-12-26T11:51:35.423Z,54.14
2018-12-26T11:54:04.668Z,54.15
2018-12-26T11:56:33.882Z,54.49
2018-12-26T11:59:04.035Z,54.36
2018-12-26T12:01:33.605Z,54.56
2018-12-26T12:04:21.857Z,54.62
2018-12-26T12:06:51.435Z,54.91
2018-12-26T12:09:20.621Z,55.32
2018-12-26T12:11:49.854Z,55.54
2018-12-26T12:14:19.347Z,55.38
2018-12-26T12:16:48.546Z,55.57
2018-12-26T12:19:17.718Z,55.70
2018-12-26T12:21:46.915Z,55.84
2018-12-26T12:24:16.794Z,56.05
2018-12-26T12:26:46.008Z,56.31
2018-12-26T12:29:15.246Z,56.63
2018-12-26T12:31:44.754Z,56.91
2018-12-26T12:34:13.959Z,57.31
2018-12-26T12:36:43.167Z,57.28
2018-12-26T12:39:12.380Z,57.30
2018-12-26T12:41:41.622Z,57.56
2018-12-26T12:44:10.903Z,57.55
2018-12-26T12:46:40.116Z,57.72
2018-12-26T12:49:09.319Z,57.48
2018-12-26T12:51:38.518Z,57.86
2018-12-26T12:54:07.710Z,57.92
2018-12-26T12:56:36.906Z,57.94
2018-12-26T12:59:06.087Z,58.09
2018-12-26T13:01:35.281Z,58.16
2018-12-26T13:04:04.491Z,58.04
2018-12-26T13:06:34.032Z,57.65
2018-12-26T13:11:42.959Z,57.77
2018-12-26T13:14:12.217Z,57.94
2018-12-26T13:16:41.452Z,57.95
2018-12-26T13:19:10.637Z,57.95
2018-12-26T13:21:39.843Z,58.19
2018-12-26T13:24:09.040Z,58.05
2018-12-26T13:26:38.255Z,58.23
2018-12-26T13:29:07.444Z,57.96
2018-12-26T13:31:36.793Z,57.68
2018-12-26T13:34:06.030Z,57.54
2018-12-26T13:36:35.228Z,56.96
2018-12-26T13:41:59.187Z,56.54
2018-12-26T13:44:28.365Z,55.94
2018-12-26T13:46:57.582Z,55.63
2018-12-26T13:49:26.767Z,54.90
2018-12-26T13:51:55.948Z,54.36
2018-12-26T13:54:44.155Z,53.83
2018-12-26T13:57:13.332Z,53.08
2018-12-26T13:59:42.539Z,52.53
2018-12-26T14:02:11.735Z,52.15
2018-12-26T14:04:40.935Z,51.87
2018-12-26T14:07:10.126Z,51.29
2018-12-26T14:09:39.339Z,50.40
2018-12-26T14:12:08.552Z,49.44
2018-12-26T14:14:37.772Z,46.44
2018-12-26T14:17:07.275Z,41.91
2018-12-26T14:19:36.493Z,40.10
2018-12-26T14:22:05.690Z,42.88
2018-12-26T14:24:34.920Z,45.85
2018-12-26T14:27:04.111Z,48.38
2018-12-26T14:29:33.457Z,50.31
2018-12-26T14:32:02.625Z,52.42
2018-12-26T14:34:32.196Z,53.59
2018-12-26T14:37:01.403Z,54.63
2018-12-26T14:39:31.035Z,55.95
2018-12-26T14:42:00.252Z,56.46
2018-12-26T14:44:29.455Z,56.75
2018-12-26T14:46:58.965Z,56.72
2018-12-26T14:49:28.653Z,56.80
2018-12-26T14:51:57.883Z,56.82
2018-12-26T14:54:27.094Z,57.26
2018-12-26T14:56:56.304Z,57.58
2018-12-26T14:59:26.368Z,58.81
2018-12-26T15:01:55.894Z,59.49
2018-12-26T15:04:25.100Z,59.98
2018-12-26T15:06:54.904Z,60.37
2018-12-26T15:09:24.088Z,61.04
2018-12-26T15:11:53.305Z,61.13
2018-12-26T15:14:23.167Z,61.44
2018-12-26T15:16:52.349Z,61.79
2018-12-26T15:19:21.863Z,61.60
2018-12-26T15:21:51.044Z,62.23
2018-12-26T15:24:20.944Z,62.33
2018-12-26T15:26:50.121Z,61.97
2018-12-26T15:29:19.338Z,61.51
2018-12-26T15:31:48.524Z,61.31
2018-12-26T15:34:17.732Z,61.01
2018-12-26T15:36:46.930Z,60.85
2018-12-26T15:39:16.114Z,61.08
2018-12-26T15:41:45.346Z,60.73
2018-12-26T15:44:14.527Z,60.60
2018-12-26T15:46:43.765Z,60.44
2018-12-26T15:49:12.953Z,60.62
2018-12-26T15:51:42.511Z,60.78
2018-12-26T15:54:11.689Z,60.95
2018-12-26T15:56:41.489Z,60.94
2018-12-26T15:59:10.732Z,60.61
2018-12-26T16:01:42.055Z,60.57
2018-12-26T16:04:11.318Z,60.60
2018-12-26T16:06:40.581Z,60.26
2018-12-26T16:09:09.822Z,60.53
2018-12-26T16:11:39.484Z,60.93
2018-12-26T16:14:08.718Z,61.01
2018-12-26T16:16:37.932Z,61.36
2018-12-26T16:19:07.160Z,61.47
2018-12-26T16:21:36.366Z,61.42
2018-12-26T16:24:05.673Z,61.41
2018-12-26T16:26:34.872Z,60.83
2018-12-26T16:29:04.288Z,60.90
2018-12-26T16:31:33.512Z,61.75
2018-12-26T16:34:02.764Z,61.95
2018-12-26T16:36:32.968Z,61.75
2018-12-26T16:39:02.224Z,61.86
2018-12-26T16:41:31.437Z,61.84
2018-12-26T16:44:00.673Z,61.73
2018-12-26T16:46:29.941Z,61.84
2018-12-26T16:49:00.283Z,62.27
2018-12-26T16:51:29.513Z,61.81
2018-12-26T16:53:59.249Z,61.75
2018-12-26T16:56:28.591Z,61.79
2018-12-26T16:58:57.867Z,61.72
2018-12-26T17:01:27.086Z,61.77
2018-12-26T17:03:56.416Z,61.71
2018-12-26T17:06:25.661Z,61.69
2018-12-26T17:08:55.330Z,61.87
2018-12-26T17:11:24.539Z,61.76
2018-12-26T17:13:53.722Z,61.50
2018-12-26T17:16:23.021Z,61.63
2018-12-26T17:18:52.330Z,61.74
2018-12-26T17:21:21.610Z,61.88
2018-12-26T17:23:50.845Z,61.86
2018-12-26T17:26:21.194Z,62.15
2018-12-26T17:31:59.077Z,62.33
2018-12-26T17:34:28.283Z,62.29
2018-12-26T17:36:57.508Z,62.08
2018-12-26T17:39:26.721Z,61.91
2018-12-26T17:41:55.962Z,61.88
2018-12-26T17:44:26.336Z,61.55
2018-12-26T17:46:55.553Z,61.75
2018-12-26T17:49:24.740Z,62.02
2018-12-26T17:51:53.958Z,62.28
2018-12-26T17:55:01.219Z,62.37
2018-12-26T17:57:35.299Z,62.57
2018-12-26T18:00:42.629Z,62.80
2018-12-26T18:03:12.134Z,62.98
2018-12-26T18:05:41.670Z,63.26
2018-12-26T18:08:10.889Z,63.99
2018-12-26T18:10:40.135Z,63.96
2018-12-26T18:13:09.347Z,64.48
2018-12-26T18:15:38.535Z,64.10
2018-12-26T18:18:08.633Z,63.96
2018-12-26T18:20:37.821Z,63.95
2018-12-26T18:23:07.033Z,63.71
2018-12-26T18:25:36.602Z,63.72
2018-12-26T18:28:05.808Z,63.32
2018-12-26T18:30:35.130Z,62.96
2018-12-26T18:33:04.360Z,62.93
2018-12-26T18:35:34.496Z,63.07
2018-12-26T18:38:03.768Z,62.78
2018-12-26T18:40:33.192Z,62.63
2018-12-26T18:43:04.357Z,63.05
2018-12-26T18:45:33.604Z,62.88
2018-12-26T18:48:03.152Z,63.02
2018-12-26T18:50:33.596Z,63.13
2018-12-26T18:53:02.810Z,63.18
2018-12-26T18:55:32.476Z,62.98
2018-12-26T18:58:01.693Z,62.96
2018-12-26T19:00:30.879Z,62.97
2018-12-26T19:03:00.101Z,63.26
2018-12-26T19:05:29.286Z,62.91
2018-12-26T19:07:58.593Z,62.68
2018-12-26T19:10:27.796Z,62.70
2018-12-26T19:12:56.975Z,63.16
2018-12-26T19:15:26.468Z,63.35
2018-12-26T19:17:55.674Z,63.46
2018-12-26T19:20:25.162Z,63.37
2018-12-26T19:23:13.610Z,63.16
2018-12-26T19:25:42.835Z,63.30
2018-12-26T19:28:12.362Z,63.56
2018-12-26T19:30:41.582Z,63.46
2018-12-26T19:33:11.134Z,63.66
2018-12-26T19:35:40.338Z,63.61
2018-12-26T19:38:09.687Z,63.58
2018-12-26T19:40:38.898Z,63.87
2018-12-26T19:43:08.639Z,63.96
2018-12-26T19:45:40.127Z,63.89
2018-12-26T19:48:09.087Z,64.18
2018-12-26T19:53:15.036Z,64.15
2018-12-26T19:55:45.569Z,65.08
2018-12-26T19:58:14.755Z,65.42
2018-12-26T20:00:44.107Z,65.39
2018-12-26T20:03:13.322Z,66.15
2018-12-26T20:05:42.670Z,65.89
2018-12-26T20:08:14.340Z,65.96
2018-12-26T20:10:43.815Z,65.70
2018-12-26T20:13:13.048Z,65.64
2018-12-26T20:15:42.319Z,65.57
2018-12-26T20:18:11.620Z,66.35
2018-12-26T20:20:41.340Z,66.87
2018-12-26T20:23:11.032Z,66.28
2018-12-26T20:25:40.295Z,66.09
2018-12-26T20:31:05.539Z,65.70
2018-12-26T20:33:34.831Z,65.86
2018-12-26T20:36:04.149Z,65.97
2018-12-26T20:38:33.457Z,65.85
2018-12-26T20:41:02.748Z,65.52
2018-12-26T20:43:32.602Z,65.75
2018-12-26T20:46:21.301Z,65.59
2018-12-26T20:51:40.504Z,65.10
2018-12-26T20:54:09.910Z,65.36
2018-12-26T20:56:39.926Z,65.92
2018-12-26T20:59:09.125Z,66.68
2018-12-26T21:01:38.591Z,66.86
2018-12-26T21:04:07.802Z,66.75
2018-12-26T21:06:51.204Z,67.14
2018-12-26T21:09:08.449Z,67.14
2018-12-26T21:11:38.197Z,66.58
2018-12-26T21:14:07.688Z,66.13
2018-12-26T21:16:55.966Z,66.23
2018-12-26T21:19:27.333Z,66.16
2018-12-26T21:21:56.684Z,65.19
2018-12-26T21:24:25.911Z,65.05
2018-12-26T21:26:55.245Z,64.96
2018-12-26T21:29:24.482Z,65.44
2018-12-26T21:31:53.901Z,65.06
2018-12-26T21:34:23.269Z,65.13
2018-12-26T21:36:52.563Z,65.48
2018-12-26T21:39:21.967Z,65.44
2018-12-26T21:41:51.225Z,66.21
2018-12-26T21:44:20.474Z,65.62
2018-12-26T21:46:49.701Z,65.93
2018-12-26T21:49:18.897Z,66.03
2018-12-26T21:51:48.115Z,66.07
2018-12-26T21:54:17.288Z,65.92
2018-12-26T21:56:46.888Z,65.54
2018-12-26T21:59:16.468Z,65.26
2018-12-26T22:01:45.661Z,65.69
2018-12-26T22:04:14.861Z,66.15
2018-12-26T22:06:44.407Z,65.88
2018-12-26T22:09:13.628Z,65.65
2018-12-26T22:12:01.808Z,65.56
2018-12-26T22:14:31.347Z,65.72
2018-12-26T22:17:00.544Z,65.62
2018-12-26T22:19:29.767Z,65.70
2018-12-26T22:21:58.952Z,65.89
2018-12-26T22:24:47.159Z,66.04
2018-12-26T22:27:16.335Z,66.27
2018-12-26T22:29:45.888Z,66.70
2018-12-26T22:32:15.091Z,66.19
2018-12-26T22:34:44.297Z,65.77
2018-12-26T22:37:13.510Z,65.69
2018-12-26T22:39:42.684Z,65.52
2018-12-26T22:42:11.890Z,65.42
2018-12-26T22:44:41.077Z,65.57
2018-12-26T22:47:10.285Z,65.86
2018-12-26T22:49:39.461Z,66.17
2018-12-26T22:52:08.647Z,65.51
2018-12-26T22:54:37.858Z,66.01
2018-12-26T22:57:07.075Z,66.26
2018-12-26T22:59:36.285Z,66.66
2018-12-26T23:02:05.539Z,66.18
2018-12-26T23:04:34.772Z,66.12
2018-12-26T23:07:03.955Z,65.81
2018-12-26T23:09:33.134Z,66.15
2018-12-26T23:12:02.641Z,65.73
2018-12-26T23:14:31.833Z,65.67
2018-12-26T23:17:01.046Z,65.83
2018-12-26T23:19:30.226Z,65.68
2018-12-26T23:21:59.410Z,65.43
2018-12-26T23:24:28.610Z,65.38
2018-12-26T23:26:57.790Z,64.96
2018-12-26T23:29:26.991Z,64.89
2018-12-26T23:31:56.172Z,64.28
2018-12-26T23:34:25.458Z,64.32
2018-12-26T23:36:54.665Z,64.55
2018-12-26T23:39:23.865Z,64.34
2018-12-26T23:41:53.439Z,64.47
2018-12-26T23:44:22.612Z,64.88
2018-12-26T23:46:51.817Z,65.13
2018-12-26T23:49:21.007Z,64.94
2018-12-26T23:51:50.191Z,65.04
2018-12-26T23:54:19.378Z,64.94
2018-12-26T23:56:48.586Z,64.73
2018-12-26T23:59:17.792Z,64.68
